sensor_id;sensor_type;location;lat;lon;timestamp;P1;durP1;ratioP1;P2;durP2;ratioP2
76610;SDS011;65503;48.534;9.062;2023-03-23T00:00:58;4.50;;;2.20;;
76610;SDS011;65503;48.534;9.062;2023-03-23T00:03:23;5.05;;;2.15;;
76610;SDS011;65503;48.534;9.062;2023-03-23T00:05:53;4.13;;;2.00;;
76610;SDS011;65503;48.534;9.062;2023-03-23T00:08:24;3.25;;;1.63;;
76610;SDS011;65503;48.534;9.062;2023-03-23T00:10:51;5.97;;;1.90;;
76610;SDS011;65503;48.534;9.062;2023-03-23T00:13:21;5.18;;;2.00;;
76610;SDS011;65503;48.534;9.062;2023-03-23T00:15:50;3.35;;;1.75;;
76610;SDS011;65503;48.534;9.062;2023-03-23T00:18:19;4.75;;;2.10;;
76610;SDS011;65503;48.534;9.062;2023-03-23T00:20:48;3.90;;;1.70;;
76610;SDS011;65503;48.534;9.062;2023-03-23T00:23:19;5.05;;;1.90;;
76610;SDS011;65503;48.534;9.062;2023-03-23T00:25:48;3.63;;;1.77;;
76610;SDS011;65503;48.534;9.062;2023-03-23T00:28:15;4.05;;;1.80;;
76610;SDS011;65503;48.534;9.062;2023-03-23T00:30:41;5.60;;;1.92;;
76610;SDS011;65503;48.534;9.062;2023-03-23T00:33:08;4.05;;;1.90;;
76610;SDS011;65503;48.534;9.062;2023-03-23T00:35:37;3.00;;;1.60;;
76610;SDS011;65503;48.534;9.062;2023-03-23T00:38:04;4.57;;;2.05;;
76610;SDS011;65503;48.534;9.062;2023-03-23T00:40:29;5.15;;;2.00;;
76610;SDS011;65503;48.534;9.062;2023-03-23T00:42:55;5.22;;;1.90;;
76610;SDS011;65503;48.534;9.062;2023-03-23T00:45:21;5.40;;;2.20;;
76610;SDS011;65503;48.534;9.062;2023-03-23T00:47:46;5.97;;;1.98;;
76610;SDS011;65503;48.534;9.062;2023-03-23T00:50:16;4.80;;;2.05;;
76610;SDS011;65503;48.534;9.062;2023-03-23T00:52:43;5.63;;;2.30;;
76610;SDS011;65503;48.534;9.062;2023-03-23T00:55:08;3.92;;;1.95;;
76610;SDS011;65503;48.534;9.062;2023-03-23T00:57:34;5.18;;;2.20;;
76610;SDS011;65503;48.534;9.062;2023-03-23T01:00:02;4.10;;;2.10;;
76610;SDS011;65503;48.534;9.062;2023-03-23T01:02:34;4.95;;;2.17;;
76610;SDS011;65503;48.534;9.062;2023-03-23T01:05:00;4.82;;;2.08;;
76610;SDS011;65503;48.534;9.062;2023-03-23T01:12:22;5.25;;;2.10;;
76610;SDS011;65503;48.534;9.062;2023-03-23T01:14:49;7.38;;;2.35;;
76610;SDS011;65503;48.534;9.062;2023-03-23T01:17:16;4.53;;;2.20;;
76610;SDS011;65503;48.534;9.062;2023-03-23T01:19:41;5.30;;;2.13;;
76610;SDS011;65503;48.534;9.062;2023-03-23T01:22:07;5.13;;;2.42;;
76610;SDS011;65503;48.534;9.062;2023-03-23T01:24:32;4.18;;;2.08;;
76610;SDS011;65503;48.534;9.062;2023-03-23T01:26:58;4.03;;;2.00;;
76610;SDS011;65503;48.534;9.062;2023-03-23T01:29:26;5.03;;;2.10;;
76610;SDS011;65503;48.534;9.062;2023-03-23T01:31:52;4.78;;;2.20;;
76610;SDS011;65503;48.534;9.062;2023-03-23T01:34:17;4.65;;;2.42;;
76610;SDS011;65503;48.534;9.062;2023-03-23T01:36:43;4.75;;;2.30;;
76610;SDS011;65503;48.534;9.062;2023-03-23T01:39:08;4.55;;;2.08;;
76610;SDS011;65503;48.534;9.062;2023-03-23T01:41:34;5.38;;;2.38;;
76610;SDS011;65503;48.534;9.062;2023-03-23T01:44:04;6.25;;;2.25;;
76610;SDS011;65503;48.534;9.062;2023-03-23T01:46:31;4.75;;;2.33;;
76610;SDS011;65503;48.534;9.062;2023-03-23T01:48:58;6.35;;;2.65;;
76610;SDS011;65503;48.534;9.062;2023-03-23T01:51:31;6.70;;;2.70;;
76610;SDS011;65503;48.534;9.062;2023-03-23T01:54:01;5.47;;;2.42;;
76610;SDS011;65503;48.534;9.062;2023-03-23T01:56:31;4.75;;;2.40;;
76610;SDS011;65503;48.534;9.062;2023-03-23T01:59:06;4.93;;;2.30;;
76610;SDS011;65503;48.534;9.062;2023-03-23T02:01:33;4.82;;;2.20;;
76610;SDS011;65503;48.534;9.062;2023-03-23T02:04:03;4.97;;;2.05;;
76610;SDS011;65503;48.534;9.062;2023-03-23T02:06:30;5.78;;;2.53;;
76610;SDS011;65503;48.534;9.062;2023-03-23T02:08:55;4.82;;;2.22;;
76610;SDS011;65503;48.534;9.062;2023-03-23T02:11:21;5.00;;;2.58;;
76610;SDS011;65503;48.534;9.062;2023-03-23T02:13:47;4.90;;;2.40;;
76610;SDS011;65503;48.534;9.062;2023-03-23T02:16:26;5.10;;;2.30;;
76610;SDS011;65503;48.534;9.062;2023-03-23T02:22:06;5.30;;;2.20;;
76610;SDS011;65503;48.534;9.062;2023-03-23T02:27:59;4.15;;;1.88;;
76610;SDS011;65503;48.534;9.062;2023-03-23T02:30:39;4.22;;;2.03;;
76610;SDS011;65503;48.534;9.062;2023-03-23T02:36:03;4.88;;;1.90;;
76610;SDS011;65503;48.534;9.062;2023-03-23T02:38:39;3.70;;;1.83;;
76610;SDS011;65503;48.534;9.062;2023-03-23T02:41:15;3.95;;;1.90;;
76610;SDS011;65503;48.534;9.062;2023-03-23T02:43:45;4.72;;;2.13;;
76610;SDS011;65503;48.534;9.062;2023-03-23T02:46:12;3.80;;;1.92;;
76610;SDS011;65503;48.534;9.062;2023-03-23T02:48:39;5.20;;;2.10;;
76610;SDS011;65503;48.534;9.062;2023-03-23T02:51:07;4.13;;;2.20;;
76610;SDS011;65503;48.534;9.062;2023-03-23T02:53:36;4.78;;;2.28;;
76610;SDS011;65503;48.534;9.062;2023-03-23T02:56:04;4.97;;;2.20;;
76610;SDS011;65503;48.534;9.062;2023-03-23T02:58:33;4.63;;;2.10;;
76610;SDS011;65503;48.534;9.062;2023-03-23T03:00:59;6.35;;;2.10;;
76610;SDS011;65503;48.534;9.062;2023-03-23T03:03:28;5.97;;;2.15;;
76610;SDS011;65503;48.534;9.062;2023-03-23T03:06:14;3.50;;;2.05;;
76610;SDS011;65503;48.534;9.062;2023-03-23T03:09:01;4.57;;;2.30;;
76610;SDS011;65503;48.534;9.062;2023-03-23T03:11:36;5.65;;;2.03;;
76610;SDS011;65503;48.534;9.062;2023-03-23T03:14:08;5.55;;;1.90;;
76610;SDS011;65503;48.534;9.062;2023-03-23T03:19:18;6.07;;;2.28;;
76610;SDS011;65503;48.534;9.062;2023-03-23T03:21:50;4.45;;;2.10;;
76610;SDS011;65503;48.534;9.062;2023-03-23T03:24:19;3.90;;;1.95;;
76610;SDS011;65503;48.534;9.062;2023-03-23T03:29:16;5.45;;;1.98;;
76610;SDS011;65503;48.534;9.062;2023-03-23T03:31:44;4.28;;;1.80;;
76610;SDS011;65503;48.534;9.062;2023-03-23T03:34:13;3.38;;;1.42;;
76610;SDS011;65503;48.534;9.062;2023-03-23T03:36:42;6.95;;;1.90;;
76610;SDS011;65503;48.534;9.062;2023-03-23T03:39:10;1.92;;;1.38;;
76610;SDS011;65503;48.534;9.062;2023-03-23T03:41:37;4.15;;;1.70;;
76610;SDS011;65503;48.534;9.062;2023-03-23T03:44:06;4.90;;;1.63;;
76610;SDS011;65503;48.534;9.062;2023-03-23T03:46:33;3.35;;;1.70;;
76610;SDS011;65503;48.534;9.062;2023-03-23T03:49:00;3.05;;;1.27;;
76610;SDS011;65503;48.534;9.062;2023-03-23T03:51:27;6.40;;;1.70;;
76610;SDS011;65503;48.534;9.062;2023-03-23T03:53:54;3.53;;;1.50;;
76610;SDS011;65503;48.534;9.062;2023-03-23T03:56:21;4.15;;;1.70;;
76610;SDS011;65503;48.534;9.062;2023-03-23T03:58:47;3.22;;;1.25;;
76610;SDS011;65503;48.534;9.062;2023-03-23T04:01:13;2.67;;;1.35;;
76610;SDS011;65503;48.534;9.062;2023-03-23T04:03:40;5.50;;;1.70;;
76610;SDS011;65503;48.534;9.062;2023-03-23T04:06:05;3.35;;;1.38;;
76610;SDS011;65503;48.534;9.062;2023-03-23T04:08:31;2.88;;;1.25;;
76610;SDS011;65503;48.534;9.062;2023-03-23T04:10:57;3.67;;;1.38;;
76610;SDS011;65503;48.534;9.062;2023-03-23T04:13:23;2.70;;;1.20;;
76610;SDS011;65503;48.534;9.062;2023-03-23T04:15:48;3.42;;;1.40;;
76610;SDS011;65503;48.534;9.062;2023-03-23T04:18:14;2.72;;;1.40;;
76610;SDS011;65503;48.534;9.062;2023-03-23T04:20:45;2.92;;;1.40;;
76610;SDS011;65503;48.534;9.062;2023-03-23T04:23:16;6.38;;;1.75;;
76610;SDS011;65503;48.534;9.062;2023-03-23T04:28:12;2.50;;;1.27;;
76610;SDS011;65503;48.534;9.062;2023-03-23T04:30:38;3.20;;;1.50;;
76610;SDS011;65503;48.534;9.062;2023-03-23T04:33:03;3.10;;;1.40;;
76610;SDS011;65503;48.534;9.062;2023-03-23T04:35:29;4.30;;;1.30;;
76610;SDS011;65503;48.534;9.062;2023-03-23T04:37:55;3.42;;;1.50;;
76610;SDS011;65503;48.534;9.062;2023-03-23T04:40:21;3.35;;;1.70;;
76610;SDS011;65503;48.534;9.062;2023-03-23T04:42:47;4.13;;;1.40;;
76610;SDS011;65503;48.534;9.062;2023-03-23T04:45:15;3.10;;;1.45;;
76610;SDS011;65503;48.534;9.062;2023-03-23T04:47:46;2.97;;;1.50;;
76610;SDS011;65503;48.534;9.062;2023-03-23T04:50:22;3.72;;;1.33;;
76610;SDS011;65503;48.534;9.062;2023-03-23T04:52:50;2.78;;;1.48;;
76610;SDS011;65503;48.534;9.062;2023-03-23T04:55:17;2.33;;;1.33;;
76610;SDS011;65503;48.534;9.062;2023-03-23T04:57:43;3.25;;;1.35;;
76610;SDS011;65503;48.534;9.062;2023-03-23T05:00:09;2.40;;;1.40;;
76610;SDS011;65503;48.534;9.062;2023-03-23T05:02:42;2.45;;;1.25;;
76610;SDS011;65503;48.534;9.062;2023-03-23T05:05:09;3.17;;;1.27;;
76610;SDS011;65503;48.534;9.062;2023-03-23T05:07:40;2.70;;;1.23;;
76610;SDS011;65503;48.534;9.062;2023-03-23T05:10:07;4.40;;;1.60;;
76610;SDS011;65503;48.534;9.062;2023-03-23T05:14:59;4.03;;;1.40;;
76610;SDS011;65503;48.534;9.062;2023-03-23T05:17:25;4.80;;;1.40;;
76610;SDS011;65503;48.534;9.062;2023-03-23T05:19:51;3.00;;;1.52;;
76610;SDS011;65503;48.534;9.062;2023-03-23T05:22:16;6.55;;;1.70;;
76610;SDS011;65503;48.534;9.062;2023-03-23T05:24:42;3.40;;;1.52;;
76610;SDS011;65503;48.534;9.062;2023-03-23T05:27:08;3.42;;;1.33;;
76610;SDS011;65503;48.534;9.062;2023-03-23T05:29:34;3.92;;;1.27;;
76610;SDS011;65503;48.534;9.062;2023-03-23T05:32:08;2.85;;;1.30;;
76610;SDS011;65503;48.534;9.062;2023-03-23T05:34:34;3.55;;;1.48;;
76610;SDS011;65503;48.534;9.062;2023-03-23T05:37:00;2.72;;;1.35;;
76610;SDS011;65503;48.534;9.062;2023-03-23T05:39:28;4.10;;;1.48;;
76610;SDS011;65503;48.534;9.062;2023-03-23T05:41:55;4.60;;;2.08;;
76610;SDS011;65503;48.534;9.062;2023-03-23T05:44:21;3.17;;;1.38;;
76610;SDS011;65503;48.534;9.062;2023-03-23T05:46:46;1.58;;;1.17;;
76610;SDS011;65503;48.534;9.062;2023-03-23T05:49:13;2.80;;;1.58;;
76610;SDS011;65503;48.534;9.062;2023-03-23T05:51:41;3.80;;;1.50;;
76610;SDS011;65503;48.534;9.062;2023-03-23T05:54:06;2.55;;;1.33;;
76610;SDS011;65503;48.534;9.062;2023-03-23T05:56:32;5.65;;;1.40;;
76610;SDS011;65503;48.534;9.062;2023-03-23T05:58:57;3.92;;;1.33;;
76610;SDS011;65503;48.534;9.062;2023-03-23T06:01:23;3.35;;;1.48;;
76610;SDS011;65503;48.534;9.062;2023-03-23T06:03:49;4.75;;;1.60;;
76610;SDS011;65503;48.534;9.062;2023-03-23T06:06:19;3.70;;;1.60;;
76610;SDS011;65503;48.534;9.062;2023-03-23T06:08:45;7.18;;;1.60;;
76610;SDS011;65503;48.534;9.062;2023-03-23T06:11:11;2.50;;;1.35;;
76610;SDS011;65503;48.534;9.062;2023-03-23T06:13:37;3.90;;;1.70;;
76610;SDS011;65503;48.534;9.062;2023-03-23T06:16:02;3.35;;;1.50;;
76610;SDS011;65503;48.534;9.062;2023-03-23T06:18:29;3.28;;;1.50;;
76610;SDS011;65503;48.534;9.062;2023-03-23T06:20:58;3.40;;;1.52;;
76610;SDS011;65503;48.534;9.062;2023-03-23T06:23:24;4.38;;;1.60;;
76610;SDS011;65503;48.534;9.062;2023-03-23T06:25:49;3.95;;;1.58;;
76610;SDS011;65503;48.534;9.062;2023-03-23T06:28:15;4.55;;;1.60;;
76610;SDS011;65503;48.534;9.062;2023-03-23T06:30:42;3.60;;;1.55;;
76610;SDS011;65503;48.534;9.062;2023-03-23T06:33:07;5.97;;;1.50;;
76610;SDS011;65503;48.534;9.062;2023-03-23T06:35:34;2.42;;;1.40;;
76610;SDS011;65503;48.534;9.062;2023-03-23T06:38:00;2.83;;;1.48;;
76610;SDS011;65503;48.534;9.062;2023-03-23T06:40:26;4.03;;;1.58;;
76610;SDS011;65503;48.534;9.062;2023-03-23T06:42:53;4.07;;;1.55;;
76610;SDS011;65503;48.534;9.062;2023-03-23T06:45:19;4.38;;;1.60;;
76610;SDS011;65503;48.534;9.062;2023-03-23T06:47:45;3.65;;;1.60;;
76610;SDS011;65503;48.534;9.062;2023-03-23T06:50:14;4.60;;;1.55;;
76610;SDS011;65503;48.534;9.062;2023-03-23T06:52:46;3.17;;;1.50;;
76610;SDS011;65503;48.534;9.062;2023-03-23T06:55:12;3.50;;;1.50;;
76610;SDS011;65503;48.534;9.062;2023-03-23T06:57:39;4.18;;;1.77;;
76610;SDS011;65503;48.534;9.062;2023-03-23T07:00:05;4.13;;;1.52;;
76610;SDS011;65503;48.534;9.062;2023-03-23T07:02:33;5.22;;;1.58;;
76610;SDS011;65503;48.534;9.062;2023-03-23T07:04:59;3.80;;;1.70;;
76610;SDS011;65503;48.534;9.062;2023-03-23T07:07:24;3.60;;;1.63;;
76610;SDS011;65503;48.534;9.062;2023-03-23T07:09:50;4.47;;;1.55;;
76610;SDS011;65503;48.534;9.062;2023-03-23T07:12:15;6.40;;;1.30;;
76610;SDS011;65503;48.534;9.062;2023-03-23T07:14:41;6.18;;;1.58;;
76610;SDS011;65503;48.534;9.062;2023-03-23T07:17:06;3.53;;;1.70;;
76610;SDS011;65503;48.534;9.062;2023-03-23T07:19:32;3.95;;;1.70;;
76610;SDS011;65503;48.534;9.062;2023-03-23T07:21:58;3.47;;;1.75;;
76610;SDS011;65503;48.534;9.062;2023-03-23T07:24:23;3.42;;;1.77;;
76610;SDS011;65503;48.534;9.062;2023-03-23T07:26:48;5.00;;;1.48;;
76610;SDS011;65503;48.534;9.062;2023-03-23T07:29:14;3.63;;;1.88;;
76610;SDS011;65503;48.534;9.062;2023-03-23T07:31:39;4.68;;;1.70;;
76610;SDS011;65503;48.534;9.062;2023-03-23T07:34:05;3.58;;;1.65;;
76610;SDS011;65503;48.534;9.062;2023-03-23T07:36:31;2.60;;;1.58;;
76610;SDS011;65503;48.534;9.062;2023-03-23T07:38:57;5.15;;;2.05;;
76610;SDS011;65503;48.534;9.062;2023-03-23T07:41:23;4.85;;;2.08;;
76610;SDS011;65503;48.534;9.062;2023-03-23T07:43:48;5.20;;;2.17;;
76610;SDS011;65503;48.534;9.062;2023-03-23T07:46:14;3.72;;;1.92;;
76610;SDS011;65503;48.534;9.062;2023-03-23T07:48:40;4.47;;;1.80;;
76610;SDS011;65503;48.534;9.062;2023-03-23T07:51:05;3.58;;;1.70;;
76610;SDS011;65503;48.534;9.062;2023-03-23T07:53:32;8.45;;;1.70;;
76610;SDS011;65503;48.534;9.062;2023-03-23T07:55:58;5.13;;;1.55;;
76610;SDS011;65503;48.534;9.062;2023-03-23T07:58:24;6.32;;;1.50;;
76610;SDS011;65503;48.534;9.062;2023-03-23T08:00:51;4.45;;;1.80;;
76610;SDS011;65503;48.534;9.062;2023-03-23T08:03:17;4.72;;;1.60;;
76610;SDS011;65503;48.534;9.062;2023-03-23T08:05:43;5.22;;;1.70;;
76610;SDS011;65503;48.534;9.062;2023-03-23T08:08:09;6.30;;;1.70;;
76610;SDS011;65503;48.534;9.062;2023-03-23T08:10:34;3.22;;;1.52;;
76610;SDS011;65503;48.534;9.062;2023-03-23T08:13:00;3.88;;;1.80;;
76610;SDS011;65503;48.534;9.062;2023-03-23T08:15:26;3.67;;;1.60;;
76610;SDS011;65503;48.534;9.062;2023-03-23T08:17:53;6.28;;;1.90;;
76610;SDS011;65503;48.534;9.062;2023-03-23T08:20:19;5.53;;;1.80;;
76610;SDS011;65503;48.534;9.062;2023-03-23T08:22:52;3.58;;;1.65;;
76610;SDS011;65503;48.534;9.062;2023-03-23T08:25:20;4.47;;;1.48;;
76610;SDS011;65503;48.534;9.062;2023-03-23T08:27:46;3.30;;;1.60;;
76610;SDS011;65503;48.534;9.062;2023-03-23T08:30:14;5.50;;;1.65;;
76610;SDS011;65503;48.534;9.062;2023-03-23T08:32:41;5.78;;;2.10;;
76610;SDS011;65503;48.534;9.062;2023-03-23T08:35:08;5.40;;;1.80;;
76610;SDS011;65503;48.534;9.062;2023-03-23T08:37:36;3.42;;;1.70;;
76610;SDS011;65503;48.534;9.062;2023-03-23T08:40:02;3.95;;;1.80;;
76610;SDS011;65503;48.534;9.062;2023-03-23T08:42:33;4.65;;;1.90;;
76610;SDS011;65503;48.534;9.062;2023-03-23T08:44:58;4.50;;;1.73;;
76610;SDS011;65503;48.534;9.062;2023-03-23T08:47:24;5.10;;;1.90;;
76610;SDS011;65503;48.534;9.062;2023-03-23T08:49:50;4.43;;;1.90;;
76610;SDS011;65503;48.534;9.062;2023-03-23T08:52:18;4.30;;;1.92;;
76610;SDS011;65503;48.534;9.062;2023-03-23T08:54:44;4.68;;;1.73;;
76610;SDS011;65503;48.534;9.062;2023-03-23T08:57:12;3.38;;;1.65;;
76610;SDS011;65503;48.534;9.062;2023-03-23T09:02:05;4.78;;;1.55;;
76610;SDS011;65503;48.534;9.062;2023-03-23T09:04:31;4.05;;;1.80;;
76610;SDS011;65503;48.534;9.062;2023-03-23T09:06:57;6.38;;;1.73;;
76610;SDS011;65503;48.534;9.062;2023-03-23T09:09:23;4.03;;;2.00;;
76610;SDS011;65503;48.534;9.062;2023-03-23T09:11:48;5.25;;;1.70;;
76610;SDS011;65503;48.534;9.062;2023-03-23T09:14:13;4.25;;;1.90;;
76610;SDS011;65503;48.534;9.062;2023-03-23T09:16:39;5.17;;;1.60;;
76610;SDS011;65503;48.534;9.062;2023-03-23T09:19:05;4.05;;;1.55;;
76610;SDS011;65503;48.534;9.062;2023-03-23T09:21:30;4.15;;;1.80;;
76610;SDS011;65503;48.534;9.062;2023-03-23T09:23:56;3.28;;;1.77;;
76610;SDS011;65503;48.534;9.062;2023-03-23T09:28:49;4.07;;;1.67;;
76610;SDS011;65503;48.534;9.062;2023-03-23T09:31:16;5.68;;;1.50;;
76610;SDS011;65503;48.534;9.062;2023-03-23T09:33:45;3.15;;;1.40;;
76610;SDS011;65503;48.534;9.062;2023-03-23T09:36:11;2.65;;;1.45;;
76610;SDS011;65503;48.534;9.062;2023-03-23T09:38:39;5.57;;;1.73;;
76610;SDS011;65503;48.534;9.062;2023-03-23T09:49:15;3.88;;;1.77;;
76610;SDS011;65503;48.534;9.062;2023-03-23T09:54:17;3.30;;;1.45;;
76610;SDS011;65503;48.534;9.062;2023-03-23T09:56:48;6.25;;;1.60;;
76610;SDS011;65503;48.534;9.062;2023-03-23T10:00:02;3.33;;;1.42;;
76610;SDS011;65503;48.534;9.062;2023-03-23T10:02:14;3.05;;;1.33;;
76610;SDS011;65503;48.534;9.062;2023-03-23T10:04:44;6.57;;;1.90;;
76610;SDS011;65503;48.534;9.062;2023-03-23T10:07:16;2.58;;;1.35;;
76610;SDS011;65503;48.534;9.062;2023-03-23T10:09:44;4.68;;;1.50;;
76610;SDS011;65503;48.534;9.062;2023-03-23T10:12:26;3.63;;;1.50;;
76610;SDS011;65503;48.534;9.062;2023-03-23T10:15:03;3.75;;;1.40;;
76610;SDS011;65503;48.534;9.062;2023-03-23T10:17:33;4.80;;;1.65;;
76610;SDS011;65503;48.534;9.062;2023-03-23T10:20:17;2.65;;;1.42;;
76610;SDS011;65503;48.534;9.062;2023-03-23T10:22:55;5.88;;;1.50;;
76610;SDS011;65503;48.534;9.062;2023-03-23T10:25:23;3.75;;;1.50;;
76610;SDS011;65503;48.534;9.062;2023-03-23T10:28:12;3.75;;;1.48;;
76610;SDS011;65503;48.534;9.062;2023-03-23T10:30:43;3.55;;;1.52;;
76610;SDS011;65503;48.534;9.062;2023-03-23T10:33:20;3.60;;;1.60;;
76610;SDS011;65503;48.534;9.062;2023-03-23T10:35:53;4.70;;;1.40;;
76610;SDS011;65503;48.534;9.062;2023-03-23T10:38:24;4.03;;;1.80;;
76610;SDS011;65503;48.534;9.062;2023-03-23T10:40:56;3.50;;;1.50;;
76610;SDS011;65503;48.534;9.062;2023-03-23T10:43:30;3.60;;;1.58;;
76610;SDS011;65503;48.534;9.062;2023-03-23T10:46:01;5.85;;;1.58;;
76610;SDS011;65503;48.534;9.062;2023-03-23T10:50:58;2.78;;;1.40;;
76610;SDS011;65503;48.534;9.062;2023-03-23T10:56:04;3.17;;;1.40;;
76610;SDS011;65503;48.534;9.062;2023-03-23T10:58:31;3.88;;;1.65;;
76610;SDS011;65503;48.534;9.062;2023-03-23T11:00:59;3.80;;;1.60;;
76610;SDS011;65503;48.534;9.062;2023-03-23T11:06:03;4.57;;;1.45;;
76610;SDS011;65503;48.534;9.062;2023-03-23T11:08:47;1.80;;;1.20;;
76610;SDS011;65503;48.534;9.062;2023-03-23T11:11:59;1.90;;;1.20;;
76610;SDS011;65503;48.534;9.062;2023-03-23T11:16:54;3.65;;;1.67;;
76610;SDS011;65503;48.534;9.062;2023-03-23T11:19:26;3.05;;;1.35;;
76610;SDS011;65503;48.534;9.062;2023-03-23T11:21:54;3.20;;;1.60;;
76610;SDS011;65503;48.534;9.062;2023-03-23T11:24:32;2.92;;;1.40;;
76610;SDS011;65503;48.534;9.062;2023-03-23T11:26:59;3.58;;;1.55;;
76610;SDS011;65503;48.534;9.062;2023-03-23T11:29:26;2.95;;;1.55;;
76610;SDS011;65503;48.534;9.062;2023-03-23T11:34:25;4.82;;;1.30;;
76610;SDS011;65503;48.534;9.062;2023-03-23T11:37:00;3.38;;;1.60;;
76610;SDS011;65503;48.534;9.062;2023-03-23T11:39:29;4.65;;;1.80;;
76610;SDS011;65503;48.534;9.062;2023-03-23T11:41:57;4.00;;;1.55;;
76610;SDS011;65503;48.534;9.062;2023-03-23T11:44:31;3.13;;;1.55;;
76610;SDS011;65503;48.534;9.062;2023-03-23T11:47:00;3.38;;;1.52;;
76610;SDS011;65503;48.534;9.062;2023-03-23T11:49:39;3.90;;;1.45;;
76610;SDS011;65503;48.534;9.062;2023-03-23T11:52:17;4.03;;;1.50;;
76610;SDS011;65503;48.534;9.062;2023-03-23T11:54:52;4.88;;;1.42;;
76610;SDS011;65503;48.534;9.062;2023-03-23T11:57:24;4.10;;;1.38;;
76610;SDS011;65503;48.534;9.062;2023-03-23T11:59:49;3.33;;;1.48;;
76610;SDS011;65503;48.534;9.062;2023-03-23T12:02:30;4.22;;;1.63;;
76610;SDS011;65503;48.534;9.062;2023-03-23T12:10:32;4.18;;;2.13;;
76610;SDS011;65503;48.534;9.062;2023-03-23T12:15:50;4.00;;;1.50;;
76610;SDS011;65503;48.534;9.062;2023-03-23T12:18:37;4.68;;;1.90;;
76610;SDS011;65503;48.534;9.062;2023-03-23T12:21:28;3.80;;;1.70;;
76610;SDS011;65503;48.534;9.062;2023-03-23T12:27:17;4.35;;;1.60;;
76610;SDS011;65503;48.534;9.062;2023-03-23T12:32:29;2.95;;;1.40;;
76610;SDS011;65503;48.534;9.062;2023-03-23T12:35:14;3.10;;;1.73;;
76610;SDS011;65503;48.534;9.062;2023-03-23T12:43:24;3.05;;;1.50;;
76610;SDS011;65503;48.534;9.062;2023-03-23T12:51:42;6.00;;;1.70;;
76610;SDS011;65503;48.534;9.062;2023-03-23T12:56:58;4.72;;;1.70;;
76610;SDS011;65503;48.534;9.062;2023-03-23T12:59:39;3.90;;;1.60;;
76610;SDS011;65503;48.534;9.062;2023-03-23T13:04:43;3.50;;;1.60;;
76610;SDS011;65503;48.534;9.062;2023-03-23T13:07:16;3.05;;;1.45;;
76610;SDS011;65503;48.534;9.062;2023-03-23T13:12:35;2.70;;;1.50;;
76610;SDS011;65503;48.534;9.062;2023-03-23T13:23:21;5.63;;;1.60;;
76610;SDS011;65503;48.534;9.062;2023-03-23T13:28:27;4.35;;;1.33;;
76610;SDS011;65503;48.534;9.062;2023-03-23T13:33:25;4.15;;;1.60;;
76610;SDS011;65503;48.534;9.062;2023-03-23T13:35:53;2.75;;;1.35;;
76610;SDS011;65503;48.534;9.062;2023-03-23T13:38:28;2.97;;;1.50;;
76610;SDS011;65503;48.534;9.062;2023-03-23T13:40:54;2.38;;;1.27;;
76610;SDS011;65503;48.534;9.062;2023-03-23T13:43:31;3.42;;;1.33;;
76610;SDS011;65503;48.534;9.062;2023-03-23T13:48:44;3.78;;;1.65;;
76610;SDS011;65503;48.534;9.062;2023-03-23T13:51:25;8.20;;;1.95;;
76610;SDS011;65503;48.534;9.062;2023-03-23T13:54:45;5.32;;;1.88;;
76610;SDS011;65503;48.534;9.062;2023-03-23T14:00:10;3.72;;;1.70;;
76610;SDS011;65503;48.534;9.062;2023-03-23T14:03:24;4.13;;;1.70;;
76610;SDS011;65503;48.534;9.062;2023-03-23T14:10:59;3.60;;;1.77;;
76610;SDS011;65503;48.534;9.062;2023-03-23T14:13:35;5.68;;;2.08;;
76610;SDS011;65503;48.534;9.062;2023-03-23T14:16:13;3.30;;;1.70;;
76610;SDS011;65503;48.534;9.062;2023-03-23T14:18:51;3.53;;;1.63;;
76610;SDS011;65503;48.534;9.062;2023-03-23T14:21:35;4.68;;;1.90;;
76610;SDS011;65503;48.534;9.062;2023-03-23T14:29:30;4.13;;;1.73;;
76610;SDS011;65503;48.534;9.062;2023-03-23T14:31:57;5.70;;;2.10;;
76610;SDS011;65503;48.534;9.062;2023-03-23T14:34:24;6.32;;;2.25;;
76610;SDS011;65503;48.534;9.062;2023-03-23T14:36:53;3.85;;;1.95;;
76610;SDS011;65503;48.534;9.062;2023-03-23T14:41:52;5.05;;;2.10;;
76610;SDS011;65503;48.534;9.062;2023-03-23T14:44:27;4.30;;;1.52;;
76610;SDS011;65503;48.534;9.062;2023-03-23T14:47:10;3.75;;;1.70;;
76610;SDS011;65503;48.534;9.062;2023-03-23T14:49:41;2.88;;;1.58;;
76610;SDS011;65503;48.534;9.062;2023-03-23T14:52:12;3.50;;;1.70;;
76610;SDS011;65503;48.534;9.062;2023-03-23T14:54:39;4.97;;;1.83;;
76610;SDS011;65503;48.534;9.062;2023-03-23T14:59:42;3.22;;;1.48;;
76610;SDS011;65503;48.534;9.062;2023-03-23T15:02:31;4.38;;;1.80;;
76610;SDS011;65503;48.534;9.062;2023-03-23T15:05:10;6.30;;;1.65;;
76610;SDS011;65503;48.534;9.062;2023-03-23T15:07:38;5.57;;;1.77;;
76610;SDS011;65503;48.534;9.062;2023-03-23T15:10:13;4.55;;;1.77;;
76610;SDS011;65503;48.534;9.062;2023-03-23T15:12:43;3.28;;;1.70;;
76610;SDS011;65503;48.534;9.062;2023-03-23T15:15:43;4.47;;;1.45;;
76610;SDS011;65503;48.534;9.062;2023-03-23T15:18:02;4.65;;;1.83;;
76610;SDS011;65503;48.534;9.062;2023-03-23T15:20:30;4.63;;;1.80;;
76610;SDS011;65503;48.534;9.062;2023-03-23T15:22:56;3.65;;;2.00;;
76610;SDS011;65503;48.534;9.062;2023-03-23T15:25:30;3.95;;;1.90;;
76610;SDS011;65503;48.534;9.062;2023-03-23T15:27:58;4.28;;;1.70;;
76610;SDS011;65503;48.534;9.062;2023-03-23T15:30:46;4.53;;;1.60;;
76610;SDS011;65503;48.534;9.062;2023-03-23T15:33:14;3.72;;;1.60;;
76610;SDS011;65503;48.534;9.062;2023-03-23T15:35:41;5.22;;;1.90;;
76610;SDS011;65503;48.534;9.062;2023-03-23T15:38:17;4.53;;;1.80;;
76610;SDS011;65503;48.534;9.062;2023-03-23T15:40:48;3.97;;;1.70;;
76610;SDS011;65503;48.534;9.062;2023-03-23T15:43:17;3.70;;;1.65;;
76610;SDS011;65503;48.534;9.062;2023-03-23T15:45:55;3.33;;;1.55;;
76610;SDS011;65503;48.534;9.062;2023-03-23T15:48:48;5.20;;;1.95;;
76610;SDS011;65503;48.534;9.062;2023-03-23T15:51:16;3.15;;;1.60;;
76610;SDS011;65503;48.534;9.062;2023-03-23T15:53:43;6.30;;;1.60;;
76610;SDS011;65503;48.534;9.062;2023-03-23T15:56:09;3.40;;;1.80;;
76610;SDS011;65503;48.534;9.062;2023-03-23T15:58:36;15.43;;;2.28;;
76610;SDS011;65503;48.534;9.062;2023-03-23T16:01:11;4.32;;;1.70;;
76610;SDS011;65503;48.534;9.062;2023-03-23T16:03:48;4.55;;;1.60;;
76610;SDS011;65503;48.534;9.062;2023-03-23T16:06:18;4.55;;;1.70;;
76610;SDS011;65503;48.534;9.062;2023-03-23T16:08:50;3.38;;;1.65;;
76610;SDS011;65503;48.534;9.062;2023-03-23T16:11:21;3.35;;;1.50;;
76610;SDS011;65503;48.534;9.062;2023-03-23T16:13:49;3.75;;;1.60;;
76610;SDS011;65503;48.534;9.062;2023-03-23T16:16:17;4.63;;;1.52;;
76610;SDS011;65503;48.534;9.062;2023-03-23T16:18:46;3.55;;;1.70;;
76610;SDS011;65503;48.534;9.062;2023-03-23T16:21:12;6.90;;;1.88;;
76610;SDS011;65503;48.534;9.062;2023-03-23T16:23:39;3.03;;;1.63;;
76610;SDS011;65503;48.534;9.062;2023-03-23T16:26:06;4.15;;;2.05;;
76610;SDS011;65503;48.534;9.062;2023-03-23T16:28:32;5.35;;;1.88;;
76610;SDS011;65503;48.534;9.062;2023-03-23T16:30:59;4.22;;;1.75;;
76610;SDS011;65503;48.534;9.062;2023-03-23T16:33:26;3.15;;;1.60;;
76610;SDS011;65503;48.534;9.062;2023-03-23T16:35:53;4.47;;;1.65;;
76610;SDS011;65503;48.534;9.062;2023-03-23T16:38:19;4.05;;;1.52;;
76610;SDS011;65503;48.534;9.062;2023-03-23T16:40:46;4.15;;;1.63;;
76610;SDS011;65503;48.534;9.062;2023-03-23T16:43:12;4.47;;;1.77;;
76610;SDS011;65503;48.534;9.062;2023-03-23T16:45:41;3.85;;;1.70;;
76610;SDS011;65503;48.534;9.062;2023-03-23T16:48:09;4.07;;;1.70;;
76610;SDS011;65503;48.534;9.062;2023-03-23T16:50:37;4.43;;;2.20;;
76610;SDS011;65503;48.534;9.062;2023-03-23T16:53:04;3.67;;;1.65;;
76610;SDS011;65503;48.534;9.062;2023-03-23T16:55:34;3.67;;;1.90;;
76610;SDS011;65503;48.534;9.062;2023-03-23T16:58:01;8.88;;;2.25;;
76610;SDS011;65503;48.534;9.062;2023-03-23T17:00:43;4.35;;;1.80;;
76610;SDS011;65503;48.534;9.062;2023-03-23T17:03:14;4.28;;;1.92;;